Terminal Aerodrome Forecast
Issued by NWS

Home | Current Version | Previous Version | Text Only | Print | Product List | Glossary On
Versions: 1 2 3 4 5 6 7 8 9 10 11 12 13 14 15 16 17 18 19 20 21 22 23 24 25 26 27 28 29
000
FTUS46 KLOX 201700
TAFPRB
TAF
KPRB 201738Z 2018/2118 10004KT P6SM VCSH OVC009
     FM201900 VRB03KT P6SM BKN015
     FM202000 33008KT P6SM BKN027
     FM210300 VRB03KT P6SM SCT030 OVC040
     FM211100 VRB03KT P6SM OVC027=

USA.gov is the U.S. government's official web portal to all federal, state and local government web resources and services.